Portada
METAR-TAF:

METAR-TAF

Aeroports :

Wittering, Anglaterra

latitud: 52-37N, longitud: 000-28W, altitud: 84 m

Observació

L'informe es va fer fa 45 minuts, a les 13:50 UTC
Vent 6 kt del Nord-Est
Temperatura 6°C
Humitat 70%
Pressió 1018 hPa
Visibilitat 10 km o més
Núvols disperses a una alçada de 1800 ft

METAR: EGXT 271350Z 05006KT 9999 SCT018 06/01 Q1018 WHT

Hora: 14:35 (14:35 UTC)

Pronòstic

L'informe es va fer fa 3 hores i 38 minuts, a les 10:57 UTC
Pronòstic vàlid del 27 a les 12 UTC al 27 a les 18 UTC
Vent 3 kt amb direcció variable
Visibilitat 10 km o més
Núvols disperses a una alçada de 4500 ft
Probabilitat 40%
l' 27 a les 12 UTC al 27 a les 14 UTC
Visibilitat: 6000 m
calitja
Evolucionant progressivament
l' 27 a les 15 UTC al 27 a les 18 UTC
Visibilitat: 4000 m
boirina

TAF: EGXT 271057Z 2712/2718 VRB03KT 9999 SCT045 PROB40 2712/2714 6000 HZ BECMG 2715/2718 4000 BR

Observacions i pronòstics meteorològics de més de 4000 aeroports (METAR i TAF).

Les estacions disponibles són els punts grocs i vermells al mapa.

Posi el ratolí al punt desitjat per veure el nom de l'estació.

Feu clic per veure les observacions i els pronòstics meteorològics.

Per canviar el mapa: feu clic els botons verds amb una creu de color negre per apropar; al botó verd amb un guió per allunyar la imatge; o en les fletxes verdes per a mapes adjacents.


METAR-TAF: